Forside
METAR-TAF:

METAR-TAF

Lufthavne :

Ames, Iowa, USA

Breddekreds: 41-59-26N, længdekreds: 093-37-08W, højde: 288 m

Aktuelle vejr

Denne rapport blev lavet for 18 minutter siden, kl. 12:42 UTC
Vind 11 kt fra sydøst
Temperatur 2°C
Fugtighed 93%
Tryk 1014 hPa
Sigt: 6.4 km
Overskyet i en højde af 500 ft
let regn, dis

METAR: KAMW 241242Z AUTO 13011KT 4SM -RA BR OVC005 02/01 A2995 RMK AO2 P0000 T00170006

Tid: 07:00 (13:00 UTC)


TAF: fraværende

Vejrobservationer og prognoser fra mere end 4000 lufthavne (METAR og TAF).

De gule og røde prikker repræsenterer de meteorologiske stationer.

Flyt musen over at se navnet på stationen.

Så klik over at se vejr observationer og prognoser.

At skifte det kort: Klik på de grønne knapper med et sort kors for at zoome ind; på den grønne knap med en bindestreg for at zoome ud; eller på de grønne pile for tilstødende kort.


METAR-TAF: